Inicio METAR Ruta Wind Satelite

Informe Meteorológico

Fecha: 2020/09/22 22:13:45 Local
2020.09.23 03:13 UTC


Estado: VENCIDO
Operación:VFR
Neiva / Benito Salas, Colombia (SKNV) 02-58N 075-18W 443M
2020.09.22 2300 UTC
Wind: from the ENE (070 degrees) at 3 MPH (3 KT):0
Visibility: greater than 7 mile(s):0
Sky conditions: mostly cloudy
Temperature: 93 F (34 C)
Dew Point: 57 F (14 C)
Relative Humidity: 30%
Pressure (altimeter): 29.73 in. Hg (1006 hPa)
ob: SKNV 222300Z 07003KT 9999 FEW045 BKN200 34/14 A2973
cycle: 23

SKNV 222200Z 05003KT 9999 FEW040 BKN200 36/11 A2971
SKNV 222100Z VRB02KT 9999 FEW040 SCT200 37/11 A2972
SKNV 222000Z VRB03KT 9999 FEW040 SCT200 36/14 A2975
SKNV 221900Z 18006KT 090V220 9999 FEW045 SCT200 36/14 A2978
SKNV 221800Z VRB05KT 9999 FEW045 SCT200 36/16 A2983